createdAt,value
2018-04-25T00:00:58.814Z,75.82
2018-04-25T00:03:26.277Z,76.22
2018-04-25T00:05:53.758Z,75.96
2018-04-25T00:08:21.230Z,76.17
2018-04-25T00:10:48.730Z,76.21
2018-04-25T00:13:16.211Z,75.93
2018-04-25T00:15:43.694Z,75.71
2018-04-25T00:18:11.159Z,75.72
2018-04-25T00:20:38.646Z,75.90
2018-04-25T00:23:06.118Z,76.01
2018-04-25T00:25:33.626Z,76.24
2018-04-25T00:28:01.182Z,76.26
2018-04-25T00:30:28.854Z,75.87
2018-04-25T00:32:56.323Z,75.88
2018-04-25T00:35:23.806Z,76.43
2018-04-25T00:37:51.329Z,76.44
2018-04-25T00:40:18.814Z,76.10
2018-04-25T00:42:46.283Z,75.68
2018-04-25T00:45:13.771Z,75.20
2018-04-25T00:47:41.258Z,75.36
2018-04-25T00:50:08.742Z,74.52
2018-04-25T00:52:36.198Z,74.56
2018-04-25T00:55:03.690Z,74.00
2018-04-25T00:57:31.191Z,74.22
2018-04-25T00:59:58.654Z,74.28
2018-04-25T01:02:26.202Z,73.37
2018-04-25T01:04:53.658Z,72.87
2018-04-25T01:07:21.146Z,72.47
2018-04-25T01:09:48.604Z,71.85
2018-04-25T01:12:16.151Z,71.59
2018-04-25T01:14:43.627Z,71.39
2018-04-25T01:17:11.123Z,71.06
2018-04-25T01:19:38.627Z,71.42
2018-04-25T01:22:06.119Z,70.96
2018-04-25T01:24:33.655Z,71.23
2018-04-25T01:27:03.951Z,71.51
2018-04-25T01:29:31.518Z,71.58
2018-04-25T01:31:59.008Z,71.09
2018-04-25T01:34:26.531Z,71.26
2018-04-25T01:37:10.067Z,71.56
2018-04-25T01:39:38.455Z,72.28
2018-04-25T01:42:14.758Z,72.14
2018-04-25T01:44:42.274Z,72.50
2018-04-25T01:47:14.640Z,72.16
2018-04-25T02:12:28.222Z,75.14
2018-04-25T02:14:55.677Z,75.12
2018-04-25T02:17:23.158Z,75.56
2018-04-25T02:19:50.630Z,75.88
2018-04-25T02:22:18.118Z,75.95
2018-04-25T02:24:45.596Z,76.16
2018-04-25T02:27:13.088Z,76.72
2018-04-25T02:29:40.546Z,76.56
2018-04-25T02:32:08.003Z,77.11
2018-04-25T02:34:35.482Z,76.97
2018-04-25T02:37:02.947Z,76.78
2018-04-25T02:39:30.482Z,77.00
2018-04-25T02:41:57.951Z,76.98
2018-04-25T02:44:25.439Z,76.70
2018-04-25T02:46:52.910Z,76.11
2018-04-25T02:49:20.394Z,75.60
2018-04-25T02:51:47.865Z,74.92
2018-04-25T02:54:15.359Z,74.85
2018-04-25T02:56:42.842Z,74.19
2018-04-25T02:59:11.296Z,73.78
2018-04-25T03:01:38.763Z,73.78
2018-04-25T03:04:06.242Z,73.91
2018-04-25T03:06:33.715Z,73.79
2018-04-25T03:09:01.196Z,73.70
2018-04-25T03:11:28.658Z,73.27
2018-04-25T03:13:56.139Z,72.09
2018-04-25T03:16:23.602Z,72.28
2018-04-25T03:18:51.081Z,73.03
2018-04-25T03:21:18.546Z,73.10
2018-04-25T03:23:46.027Z,73.70
2018-04-25T03:26:13.487Z,73.76
2018-04-25T03:28:40.976Z,74.53
2018-04-25T03:31:08.470Z,74.92
2018-04-25T03:33:35.972Z,75.20
2018-04-25T03:36:03.435Z,75.33
2018-04-25T03:38:30.926Z,75.76
2018-04-25T03:40:58.428Z,76.22
2018-04-25T03:43:25.878Z,76.78
2018-04-25T03:45:53.358Z,76.99
2018-04-25T03:48:20.819Z,77.12
2018-04-25T03:50:49.303Z,77.28
2018-04-25T03:53:16.770Z,77.86
2018-04-25T03:55:44.262Z,76.67
2018-04-25T03:58:11.731Z,76.78
2018-04-25T04:00:39.359Z,76.67
2018-04-25T04:03:06.817Z,76.71
2018-04-25T04:05:34.298Z,77.04
2018-04-25T04:08:01.790Z,77.32
2018-04-25T04:10:29.269Z,77.48
2018-04-25T04:12:56.798Z,77.81
2018-04-25T04:15:24.255Z,77.73
2018-04-25T04:17:51.779Z,77.96
2018-04-25T04:20:19.270Z,78.38
2018-04-25T04:22:47.577Z,78.50
2018-04-25T04:25:15.064Z,78.61
2018-04-25T04:27:42.522Z,78.72
2018-04-25T04:30:10.007Z,78.27
2018-04-25T04:32:37.474Z,77.91
2018-04-25T04:35:04.959Z,77.76
2018-04-25T04:37:32.436Z,77.39
2018-04-25T04:39:59.919Z,77.37
2018-04-25T04:42:27.383Z,77.10
2018-04-25T04:44:54.874Z,77.19
2018-04-25T04:47:22.339Z,77.48
2018-04-25T04:49:49.798Z,77.33
2018-04-25T04:52:17.278Z,77.23
2018-04-25T04:54:44.743Z,77.72
2018-04-25T04:57:12.231Z,77.60
2018-04-25T04:59:39.746Z,77.12
2018-04-25T05:02:07.205Z,77.48
2018-04-25T05:04:34.706Z,77.43
2018-04-25T05:07:02.188Z,77.40
2018-04-25T05:09:29.646Z,77.47
2018-04-25T05:11:57.138Z,77.24
2018-04-25T05:14:24.606Z,77.27
2018-04-25T05:16:52.100Z,77.09
2018-04-25T05:19:19.582Z,76.64
2018-04-25T05:21:47.069Z,76.48
2018-04-25T05:24:14.534Z,76.55
2018-04-25T05:26:42.034Z,75.92
2018-04-25T05:29:09.516Z,76.26
2018-04-25T05:31:36.997Z,76.08
2018-04-25T05:34:04.458Z,75.46
2018-04-25T05:36:31.938Z,74.92
2018-04-25T05:38:59.399Z,74.85
2018-04-25T05:41:26.900Z,74.29
2018-04-25T05:43:54.371Z,74.06
2018-04-25T05:46:21.855Z,73.60
2018-04-25T05:48:49.321Z,73.16
2018-04-25T05:51:16.811Z,72.18
2018-04-25T05:53:44.291Z,72.48
2018-04-25T05:56:11.790Z,72.09
2018-04-25T05:58:39.258Z,71.29
2018-04-25T06:01:06.742Z,70.97
2018-04-25T06:03:34.563Z,70.64
2018-04-25T06:06:02.031Z,70.73
2018-04-25T06:08:29.525Z,70.48
2018-04-25T06:10:57.006Z,70.42
2018-04-25T06:13:24.491Z,69.77
2018-04-25T06:15:51.991Z,69.53
2018-04-25T06:18:19.469Z,69.22
2018-04-25T06:20:46.933Z,69.31
2018-04-25T06:23:14.423Z,68.75
2018-04-25T06:25:41.898Z,67.62
2018-04-25T06:28:09.445Z,67.71
2018-04-25T06:30:36.878Z,67.04
2018-04-25T06:33:04.379Z,66.21
2018-04-25T06:35:31.848Z,66.23
2018-04-25T06:37:59.330Z,65.79
2018-04-25T06:40:26.805Z,65.76
2018-04-25T06:42:54.318Z,66.17
2018-04-25T06:45:21.800Z,65.45
2018-04-25T06:47:49.298Z,64.71
2018-04-25T06:50:16.761Z,64.58
2018-04-25T06:52:44.243Z,63.10
2018-04-25T06:55:11.711Z,61.66
2018-04-25T06:57:39.190Z,61.30
2018-04-25T07:00:06.661Z,60.53
2018-04-25T07:02:34.155Z,59.07
2018-04-25T07:05:01.618Z,58.17
2018-04-25T07:07:29.133Z,57.08
2018-04-25T07:09:56.622Z,56.25
2018-04-25T07:12:24.106Z,54.71
2018-04-25T07:14:51.574Z,55.71
2018-04-25T07:17:19.071Z,55.70
2018-04-25T07:19:46.539Z,55.50
2018-04-25T07:22:14.070Z,55.93
2018-04-25T07:24:41.534Z,56.40
2018-04-25T07:27:09.002Z,55.25
2018-04-25T07:29:36.585Z,54.20
2018-04-25T07:32:04.095Z,53.88
2018-04-25T07:34:31.647Z,54.31
2018-04-25T07:36:59.118Z,53.37
2018-04-25T07:39:26.622Z,52.74
2018-04-25T07:41:54.184Z,53.07
2018-04-25T07:44:21.686Z,53.38
2018-04-25T07:46:49.280Z,53.84
2018-04-25T07:49:16.778Z,54.65
2018-04-25T07:51:44.246Z,55.36
2018-04-25T07:54:11.739Z,55.69
2018-04-25T07:56:39.226Z,55.02
2018-04-25T07:59:06.718Z,55.17
2018-04-25T08:01:34.189Z,54.41
2018-04-25T08:04:01.675Z,54.03
2018-04-25T08:06:29.151Z,52.51
2018-04-25T08:08:56.630Z,50.23
2018-04-25T08:11:24.111Z,50.38
2018-04-25T08:14:03.383Z,50.49
2018-04-25T08:16:42.555Z,50.17
2018-04-25T08:19:23.054Z,49.60
2018-04-25T08:21:50.629Z,49.20
2018-04-25T08:24:18.138Z,49.12
2018-04-25T08:26:45.618Z,48.96
2018-04-25T08:29:13.103Z,48.55
2018-04-25T08:31:40.602Z,49.02
2018-04-25T08:34:08.082Z,48.29
2018-04-25T08:36:35.624Z,49.53
2018-04-25T08:39:03.150Z,50.01
2018-04-25T08:41:30.623Z,50.93
2018-04-25T08:43:58.109Z,49.33
2018-04-25T08:46:27.532Z,49.12
2018-04-25T08:48:55.201Z,47.76
2018-04-25T08:51:22.719Z,48.41
2018-04-25T08:53:50.182Z,48.16
2018-04-25T08:56:17.662Z,47.56
2018-04-25T08:58:45.118Z,48.07
2018-04-25T09:01:12.613Z,48.30
2018-04-25T09:03:40.090Z,49.23
2018-04-25T09:06:07.633Z,48.80
2018-04-25T09:08:35.138Z,49.21
2018-04-25T09:11:02.622Z,47.52
2018-04-25T09:13:30.303Z,47.90
2018-04-25T09:15:57.953Z,47.52
2018-04-25T09:18:25.423Z,47.34
2018-04-25T09:20:53.718Z,47.41
2018-04-25T09:23:21.254Z,46.73
2018-04-25T09:25:48.742Z,47.47
2018-04-25T09:28:16.210Z,47.57
2018-04-25T09:30:43.707Z,47.78
2018-04-25T09:33:11.169Z,47.69
2018-04-25T09:35:38.667Z,45.96
2018-04-25T09:38:06.158Z,45.00
2018-04-25T09:40:33.666Z,45.11
2018-04-25T09:43:01.131Z,43.62
2018-04-25T09:45:28.634Z,42.31
2018-04-25T09:47:56.111Z,42.68
2018-04-25T09:50:27.077Z,41.22
2018-04-25T09:52:54.714Z,39.53
2018-04-25T09:55:25.602Z,38.96
2018-04-25T09:57:53.345Z,38.08
2018-04-25T10:00:20.783Z,37.04
2018-04-25T10:02:53.915Z,35.93
2018-04-25T10:05:21.397Z,36.06
2018-04-25T10:07:48.940Z,35.15
2018-04-25T10:10:18.622Z,35.13
2018-04-25T10:12:46.346Z,35.67
2018-04-25T10:15:16.389Z,34.74
2018-04-25T10:17:44.042Z,34.79
2018-04-25T10:20:11.513Z,35.01
2018-04-25T10:22:39.052Z,35.27
2018-04-25T10:25:06.523Z,32.85
2018-04-25T10:27:34.210Z,31.40
2018-04-25T10:30:01.867Z,30.94
2018-04-25T10:32:29.369Z,31.15
2018-04-25T10:34:56.829Z,31.47
2018-04-25T10:37:24.349Z,31.44
2018-04-25T10:39:52.006Z,30.10
2018-04-25T10:42:19.510Z,30.32
2018-04-25T10:44:47.007Z,30.22
2018-04-25T10:47:14.521Z,29.94
2018-04-25T10:49:41.987Z,29.66
2018-04-25T10:52:09.485Z,30.95
2018-04-25T10:54:36.979Z,30.45
2018-04-25T10:57:04.466Z,30.94
2018-04-25T10:59:31.925Z,31.39
2018-04-25T11:01:59.415Z,31.25
2018-04-25T11:04:26.982Z,30.31
2018-04-25T11:06:54.417Z,30.76
2018-04-25T11:09:22.335Z,30.32
2018-04-25T11:11:49.814Z,30.10
2018-04-25T11:14:20.792Z,29.68
2018-04-25T11:16:52.785Z,30.63
2018-04-25T11:19:20.319Z,30.61
2018-04-25T11:21:47.787Z,29.67
2018-04-25T11:24:15.304Z,28.93
2018-04-25T11:26:42.833Z,28.69
2018-04-25T11:29:10.334Z,29.49
2018-04-25T11:31:37.798Z,28.57
2018-04-25T11:34:05.295Z,26.73
2018-04-25T11:36:32.795Z,26.73
2018-04-25T11:39:00.283Z,29.55
2018-04-25T11:41:27.766Z,32.23
2018-04-25T11:43:55.267Z,34.80
2018-04-25T11:46:22.738Z,32.20
2018-04-25T11:48:50.250Z,29.44
2018-04-25T11:51:17.734Z,26.50
2018-04-25T11:53:45.218Z,25.49
2018-04-25T11:56:12.904Z,25.59
2018-04-25T11:58:40.418Z,24.07
2018-04-25T12:01:07.890Z,29.07
2018-04-25T12:03:35.391Z,30.80
2018-04-25T12:06:02.876Z,31.68
2018-04-25T12:08:30.369Z,32.56
2018-04-25T12:10:57.848Z,30.32
2018-04-25T12:13:25.372Z,27.58
2018-04-25T12:15:52.828Z,29.93
2018-04-25T12:18:20.374Z,30.64
2018-04-25T12:20:47.871Z,31.87
2018-04-25T12:23:15.368Z,30.64
2018-04-25T12:25:42.878Z,32.06
2018-04-25T12:28:10.342Z,34.45
2018-04-25T12:30:37.838Z,35.40
2018-04-25T12:33:05.349Z,36.37
2018-04-25T12:35:32.850Z,31.19
2018-04-25T12:38:00.320Z,28.05
2018-04-25T12:40:27.827Z,25.89
2018-04-25T12:42:55.295Z,24.68
2018-04-25T12:45:22.791Z,24.41
2018-04-25T12:47:50.266Z,22.80
2018-04-25T12:50:17.834Z,22.72
2018-04-25T12:52:45.330Z,22.10
2018-04-25T12:55:12.823Z,22.00
2018-04-25T12:57:40.488Z,23.94
2018-04-25T13:00:07.996Z,24.48
2018-04-25T13:02:35.490Z,24.30
2018-04-25T13:05:03.999Z,23.91
2018-04-25T13:07:31.464Z,23.37
2018-04-25T13:09:58.991Z,22.14
2018-04-25T13:12:26.465Z,22.46
2018-04-25T13:14:53.972Z,24.67
2018-04-25T13:17:21.447Z,23.42
2018-04-25T13:19:48.952Z,23.00
2018-04-25T13:22:16.431Z,25.44
2018-04-25T13:24:43.909Z,25.05
2018-04-25T13:27:11.467Z,24.74
2018-04-25T13:29:38.939Z,25.28
2018-04-25T13:32:06.522Z,25.78
2018-04-25T13:34:33.999Z,28.84
2018-04-25T13:37:01.491Z,30.25
2018-04-25T13:39:28.950Z,26.60
2018-04-25T13:41:56.438Z,27.67
2018-04-25T13:44:23.904Z,26.94
2018-04-25T13:46:51.737Z,27.28
2018-04-25T13:49:21.384Z,24.53
2018-04-25T13:51:48.989Z,21.12
2018-04-25T13:54:16.571Z,20.42
2018-04-25T13:56:45.553Z,22.50
2018-04-25T13:59:13.594Z,25.42
2018-04-25T14:01:41.086Z,24.45
2018-04-25T14:04:09.034Z,21.80
2018-04-25T14:06:36.518Z,20.89
2018-04-25T14:09:03.982Z,20.48
2018-04-25T14:11:31.578Z,20.10
2018-04-25T14:13:59.060Z,20.72
2018-04-25T14:16:29.381Z,22.56
2018-04-25T14:18:59.052Z,20.12
2018-04-25T14:21:26.923Z,19.77
2018-04-25T14:23:54.390Z,18.67
2018-04-25T14:26:23.925Z,19.13
2018-04-25T14:28:51.706Z,20.24
2018-04-25T14:31:19.318Z,18.80
2018-04-25T14:33:46.782Z,20.25
2018-04-25T14:36:14.294Z,22.97
2018-04-25T14:38:44.846Z,27.89
2018-04-25T14:41:12.850Z,31.12
2018-04-25T14:43:40.355Z,32.81
2018-04-25T14:46:07.818Z,34.04
2018-04-25T14:48:35.319Z,35.41
2018-04-25T14:51:02.850Z,36.19
2018-04-25T14:53:30.366Z,36.28
2018-04-25T14:55:57.835Z,35.01
2018-04-25T14:58:25.326Z,30.45
2018-04-25T15:00:52.797Z,31.27
2018-04-25T15:03:20.307Z,33.32
2018-04-25T15:05:47.771Z,34.75
2018-04-25T15:08:15.293Z,34.16
2018-04-25T15:10:42.774Z,28.01
2018-04-25T15:13:10.269Z,25.57
2018-04-25T15:15:37.758Z,26.14
2018-04-25T15:18:05.267Z,26.32
2018-04-25T15:20:32.745Z,26.02
2018-04-25T15:23:00.234Z,27.51
2018-04-25T15:25:27.716Z,27.06
2018-04-25T15:27:55.236Z,29.28
2018-04-25T15:30:22.706Z,29.77
2018-04-25T15:32:50.206Z,29.62
2018-04-25T15:35:17.681Z,31.46
2018-04-25T15:37:45.206Z,30.77
2018-04-25T15:40:12.669Z,27.02
2018-04-25T15:42:40.153Z,27.24
2018-04-25T15:45:07.618Z,26.29
2018-04-25T15:47:35.148Z,26.25
2018-04-25T15:50:02.646Z,24.85
2018-04-25T15:52:30.102Z,21.17
2018-04-25T15:54:57.588Z,20.33
2018-04-25T15:57:25.064Z,21.31
2018-04-25T15:59:52.590Z,23.65
2018-04-25T16:02:20.067Z,22.17
2018-04-25T16:04:47.559Z,22.81
2018-04-25T16:07:15.034Z,22.04
2018-04-25T16:09:42.630Z,20.57
2018-04-25T16:12:10.153Z,23.71
2018-04-25T16:14:37.634Z,23.67
2018-04-25T16:17:05.212Z,22.25
2018-04-25T16:19:32.718Z,22.71
2018-04-25T16:22:00.231Z,22.51
2018-04-25T16:24:27.729Z,23.09
2018-04-25T16:26:55.194Z,23.56
2018-04-25T16:29:22.710Z,22.40
2018-04-25T16:31:50.197Z,23.41
2018-04-25T16:34:17.678Z,22.27
2018-04-25T16:36:45.174Z,23.95
2018-04-25T16:39:12.658Z,23.27
2018-04-25T16:41:40.125Z,23.40
2018-04-25T16:44:07.681Z,23.81
2018-04-25T16:46:35.149Z,24.45
2018-04-25T16:49:02.647Z,22.59
2018-04-25T16:51:30.110Z,20.90
2018-04-25T16:53:57.594Z,21.03
2018-04-25T16:56:25.078Z,23.69
2018-04-25T16:58:52.591Z,25.42
2018-04-25T17:01:20.603Z,28.24
2018-04-25T17:03:48.073Z,30.62
2018-04-25T17:06:15.562Z,33.96
2018-04-25T17:08:43.018Z,34.67
2018-04-25T17:11:10.506Z,35.32
2018-04-25T17:13:38.030Z,35.59
2018-04-25T17:16:05.483Z,36.49
2018-04-25T17:18:33.079Z,36.47
2018-04-25T17:21:00.592Z,37.49
2018-04-25T17:23:28.096Z,37.75
2018-04-25T17:25:55.592Z,38.03
2018-04-25T17:28:23.072Z,38.37
2018-04-25T17:30:50.566Z,38.71
2018-04-25T17:33:18.040Z,38.97
2018-04-25T17:35:45.543Z,38.87
2018-04-25T17:38:13.001Z,39.07
2018-04-25T17:40:40.485Z,39.64
2018-04-25T17:43:07.941Z,39.22
2018-04-25T17:45:35.609Z,38.72
2018-04-25T17:48:03.078Z,36.84
2018-04-25T17:50:30.679Z,34.66
2018-04-25T17:52:58.198Z,33.77
2018-04-25T17:55:25.687Z,33.98
2018-04-25T17:57:53.144Z,35.12
2018-04-25T18:00:20.638Z,37.33
2018-04-25T18:02:48.095Z,39.40
2018-04-25T18:05:15.580Z,40.43
2018-04-25T18:07:43.050Z,41.22
2018-04-25T18:10:10.536Z,41.76
2018-04-25T18:12:38.034Z,42.67
2018-04-25T18:15:05.536Z,43.27
2018-04-25T18:17:33.026Z,43.73
2018-04-25T18:20:00.506Z,44.12
2018-04-25T18:22:28.025Z,44.47
2018-04-25T18:24:55.510Z,44.62
2018-04-25T18:27:22.989Z,45.17
2018-04-25T18:29:50.468Z,45.41
2018-04-25T18:32:17.995Z,45.70
2018-04-25T18:34:45.507Z,45.79
2018-04-25T18:37:13.062Z,45.90
2018-04-25T18:39:40.542Z,46.11
2018-04-25T18:42:08.079Z,46.19
2018-04-25T18:44:35.572Z,46.53
2018-04-25T18:47:03.067Z,46.91
2018-04-25T18:49:30.566Z,47.28
2018-04-25T18:51:58.091Z,47.59
2018-04-25T18:54:25.571Z,47.63
2018-04-25T18:56:53.266Z,47.43
2018-04-25T18:59:20.734Z,47.30
2018-04-25T19:01:48.214Z,47.84
2018-04-25T19:04:15.689Z,48.37
2018-04-25T19:06:43.178Z,48.51
2018-04-25T19:09:10.633Z,48.83
2018-04-25T19:11:38.132Z,49.17
2018-04-25T19:14:05.598Z,49.37
2018-04-25T19:16:33.103Z,49.61
2018-04-25T19:19:00.570Z,47.75
2018-04-25T19:21:28.026Z,47.85
2018-04-25T19:23:55.546Z,46.93
2018-04-25T19:26:23.004Z,46.79
2018-04-25T19:28:50.533Z,46.96
2018-04-25T19:31:17.994Z,47.20
2018-04-25T19:33:45.489Z,47.51
2018-04-25T19:36:12.951Z,47.24
2018-04-25T19:38:40.585Z,47.05
2018-04-25T19:41:08.181Z,47.04
2018-04-25T19:43:35.659Z,47.10
2018-04-25T19:46:03.141Z,47.07
2018-04-25T19:48:30.631Z,47.32
2018-04-25T19:50:58.103Z,48.38
2018-04-25T19:53:25.602Z,48.71
2018-04-25T19:55:53.995Z,49.07
2018-04-25T19:58:21.495Z,49.75
2018-04-25T20:00:48.973Z,50.08
2018-04-25T20:03:16.467Z,50.65
2018-04-25T20:05:43.967Z,51.11
2018-04-25T20:08:11.523Z,51.76
2018-04-25T20:10:38.986Z,52.20
2018-04-25T20:13:06.604Z,52.64
2018-04-25T20:15:34.083Z,53.10
2018-04-25T20:18:01.575Z,53.27
2018-04-25T20:20:29.034Z,53.51
2018-04-25T20:22:56.514Z,54.02
2018-04-25T20:25:23.972Z,54.36
2018-04-25T20:27:51.467Z,55.02
2018-04-25T20:30:20.401Z,55.55
2018-04-25T20:32:47.882Z,56.03
2018-04-25T20:35:15.361Z,56.31
2018-04-25T20:37:42.839Z,56.62
2018-04-25T20:40:10.330Z,56.87
2018-04-25T20:42:37.785Z,56.82
2018-04-25T20:45:05.301Z,56.91
2018-04-25T20:47:32.758Z,57.31
2018-04-25T20:50:00.243Z,57.61
2018-04-25T20:52:27.727Z,57.70
2018-04-25T20:54:55.211Z,58.22
2018-04-25T20:57:22.670Z,58.32
2018-04-25T20:59:50.151Z,58.13
2018-04-25T21:02:17.668Z,58.25
2018-04-25T21:04:46.222Z,58.62
2018-04-25T21:07:13.686Z,58.73
2018-04-25T21:09:41.166Z,59.38
2018-04-25T21:12:08.771Z,59.76
2018-04-25T21:14:36.250Z,59.35
2018-04-25T21:17:03.723Z,59.36
2018-04-25T21:19:31.198Z,59.36
2018-04-25T21:21:58.655Z,59.60
2018-04-25T21:24:26.147Z,59.70
2018-04-25T21:26:53.613Z,59.68
2018-04-25T21:29:21.094Z,59.80
2018-04-25T21:31:48.570Z,60.30
2018-04-25T21:34:16.030Z,60.50
2018-04-25T21:36:43.530Z,60.76
2018-04-25T21:39:10.986Z,60.66
2018-04-25T21:41:38.470Z,60.52
2018-04-25T21:44:05.990Z,60.37
2018-04-25T21:46:33.474Z,60.45
2018-04-25T21:49:00.939Z,59.96
2018-04-25T21:51:28.430Z,59.74
2018-04-25T21:53:55.891Z,59.18
2018-04-25T21:56:23.373Z,58.86
2018-04-25T21:58:50.834Z,58.82
2018-04-25T22:01:18.319Z,58.35
2018-04-25T22:03:45.790Z,58.29
2018-04-25T22:06:13.274Z,58.24
2018-04-25T22:08:40.746Z,57.97
2018-04-25T22:11:08.251Z,58.41
2018-04-25T22:13:35.717Z,58.83
2018-04-25T22:16:03.194Z,58.43
2018-04-25T22:18:30.653Z,58.29
2018-04-25T22:20:58.151Z,58.68
2018-04-25T22:23:25.608Z,58.46
2018-04-25T22:25:53.130Z,58.37
2018-04-25T22:28:20.599Z,58.26
2018-04-25T22:30:48.077Z,58.54
2018-04-25T22:33:15.541Z,58.82
2018-04-25T22:35:43.031Z,59.42
2018-04-25T22:38:10.486Z,59.39
2018-04-25T22:40:37.946Z,60.01
2018-04-25T22:43:05.426Z,60.28
2018-04-25T22:45:32.890Z,60.60
2018-04-25T22:48:00.391Z,60.79
2018-04-25T22:50:27.855Z,61.19
2018-04-25T22:52:55.333Z,61.36
2018-04-25T22:55:22.791Z,61.05
2018-04-25T22:57:50.279Z,61.02
2018-04-25T23:00:17.782Z,60.00
2018-04-25T23:02:45.264Z,59.94
2018-04-25T23:05:12.750Z,59.90
2018-04-25T23:07:40.227Z,60.63
2018-04-25T23:10:07.681Z,60.08
2018-04-25T23:12:35.166Z,59.78
2018-04-25T23:15:02.622Z,59.35
2018-04-25T23:17:30.097Z,58.92
2018-04-25T23:19:58.539Z,58.80
2018-04-25T23:22:26.023Z,58.47
2018-04-25T23:24:53.487Z,58.46
2018-04-25T23:27:20.974Z,58.09
2018-04-25T23:29:48.429Z,58.03
2018-04-25T23:32:15.909Z,58.00
2018-04-25T23:34:43.385Z,58.11
2018-04-25T23:37:10.866Z,58.16
2018-04-25T23:39:38.323Z,58.23
2018-04-25T23:42:05.810Z,58.58
2018-04-25T23:44:33.270Z,58.46
2018-04-25T23:47:00.763Z,58.71
2018-04-25T23:49:28.246Z,58.55
2018-04-25T23:51:55.742Z,59.45
2018-04-25T23:54:23.198Z,60.04
2018-04-25T23:56:50.674Z,60.25
2018-04-25T23:59:18.151Z,61.04
